sensor_id;sensor_type;location;lat;lon;timestamp;P1;durP1;ratioP1;P2;durP2;ratioP2
9222;SDS011;7557;51.698;3.942;2024-03-17T00:02:10;65.57;;;62.73;;
9222;SDS011;7557;51.698;3.942;2024-03-17T00:04:36;57.57;;;54.83;;
9222;SDS011;7557;51.698;3.942;2024-03-17T00:07:04;52.43;;;50.20;;
9222;SDS011;7557;51.698;3.942;2024-03-17T00:09:30;58.17;;;55.57;;
9222;SDS011;7557;51.698;3.942;2024-03-17T00:11:58;51.13;;;48.53;;
9222;SDS011;7557;51.698;3.942;2024-03-17T00:14:26;53.03;;;50.63;;
9222;SDS011;7557;51.698;3.942;2024-03-17T00:16:54;66.53;;;63.80;;
9222;SDS011;7557;51.698;3.942;2024-03-17T00:19:20;50.73;;;48.57;;
9222;SDS011;7557;51.698;3.942;2024-03-17T00:21:52;49.00;;;46.60;;
9222;SDS011;7557;51.698;3.942;2024-03-17T00:24:19;56.90;;;54.40;;
9222;SDS011;7557;51.698;3.942;2024-03-17T00:26:47;54.13;;;51.90;;
9222;SDS011;7557;51.698;3.942;2024-03-17T00:29:14;50.77;;;48.50;;
9222;SDS011;7557;51.698;3.942;2024-03-17T00:31:43;50.60;;;48.33;;
9222;SDS011;7557;51.698;3.942;2024-03-17T00:34:09;50.30;;;47.83;;
9222;SDS011;7557;51.698;3.942;2024-03-17T00:36:37;53.80;;;51.33;;
9222;SDS011;7557;51.698;3.942;2024-03-17T00:39:04;47.93;;;46.07;;
9222;SDS011;7557;51.698;3.942;2024-03-17T00:41:31;58.50;;;56.10;;
9222;SDS011;7557;51.698;3.942;2024-03-17T00:43:58;61.07;;;58.37;;
9222;SDS011;7557;51.698;3.942;2024-03-17T00:46:26;55.33;;;53.13;;
9222;SDS011;7557;51.698;3.942;2024-03-17T00:48:56;62.97;;;60.27;;
9222;SDS011;7557;51.698;3.942;2024-03-17T00:51:25;70.00;;;67.13;;
9222;SDS011;7557;51.698;3.942;2024-03-17T00:53:51;65.40;;;62.83;;
9222;SDS011;7557;51.698;3.942;2024-03-17T00:56:19;58.17;;;55.87;;
9222;SDS011;7557;51.698;3.942;2024-03-17T00:58:45;49.50;;;47.03;;
9222;SDS011;7557;51.698;3.942;2024-03-17T01:01:13;43.50;;;41.57;;
9222;SDS011;7557;51.698;3.942;2024-03-17T01:03:39;41.77;;;39.90;;
9222;SDS011;7557;51.698;3.942;2024-03-17T01:06:08;33.53;;;32.10;;
9222;SDS011;7557;51.698;3.942;2024-03-17T01:08:34;29.57;;;28.23;;
9222;SDS011;7557;51.698;3.942;2024-03-17T01:11:01;25.20;;;23.90;;
9222;SDS011;7557;51.698;3.942;2024-03-17T01:13:28;31.67;;;30.03;;
9222;SDS011;7557;51.698;3.942;2024-03-17T01:15:56;26.17;;;24.93;;
9222;SDS011;7557;51.698;3.942;2024-03-17T01:18:22;30.07;;;28.77;;
9222;SDS011;7557;51.698;3.942;2024-03-17T01:20:50;27.93;;;26.53;;
9222;SDS011;7557;51.698;3.942;2024-03-17T01:23:18;28.60;;;27.33;;
9222;SDS011;7557;51.698;3.942;2024-03-17T01:25:45;70.50;;;65.77;;
9222;SDS011;7557;51.698;3.942;2024-03-17T01:28:11;26.53;;;25.17;;
9222;SDS011;7557;51.698;3.942;2024-03-17T01:30:39;27.07;;;25.70;;
9222;SDS011;7557;51.698;3.942;2024-03-17T01:33:06;24.23;;;22.97;;
9222;SDS011;7557;51.698;3.942;2024-03-17T01:35:34;26.20;;;24.90;;
9222;SDS011;7557;51.698;3.942;2024-03-17T01:38:00;24.17;;;22.83;;
9222;SDS011;7557;51.698;3.942;2024-03-17T01:40:32;23.17;;;21.97;;
9222;SDS011;7557;51.698;3.942;2024-03-17T01:42:59;29.40;;;27.77;;
9222;SDS011;7557;51.698;3.942;2024-03-17T01:45:27;28.50;;;27.20;;
9222;SDS011;7557;51.698;3.942;2024-03-17T01:47:54;30.73;;;29.37;;
9222;SDS011;7557;51.698;3.942;2024-03-17T01:50:24;25.67;;;24.07;;
9222;SDS011;7557;51.698;3.942;2024-03-17T01:52:51;27.13;;;25.80;;
9222;SDS011;7557;51.698;3.942;2024-03-17T01:55:20;28.10;;;26.87;;
9222;SDS011;7557;51.698;3.942;2024-03-17T01:57:48;30.67;;;29.03;;
9222;SDS011;7557;51.698;3.942;2024-03-17T02:00:16;28.30;;;26.97;;
9222;SDS011;7557;51.698;3.942;2024-03-17T02:02:43;33.20;;;31.63;;
9222;SDS011;7557;51.698;3.942;2024-03-17T02:05:11;43.40;;;41.43;;
9222;SDS011;7557;51.698;3.942;2024-03-17T02:07:37;36.37;;;34.73;;
9222;SDS011;7557;51.698;3.942;2024-03-17T02:10:06;41.03;;;39.03;;
9222;SDS011;7557;51.698;3.942;2024-03-17T02:12:34;46.60;;;44.57;;
9222;SDS011;7557;51.698;3.942;2024-03-17T02:15:03;41.23;;;39.40;;
9222;SDS011;7557;51.698;3.942;2024-03-17T02:17:31;47.47;;;45.63;;
9222;SDS011;7557;51.698;3.942;2024-03-17T02:19:59;50.93;;;48.70;;
9222;SDS011;7557;51.698;3.942;2024-03-17T02:22:27;55.13;;;52.73;;
9222;SDS011;7557;51.698;3.942;2024-03-17T02:24:55;49.30;;;47.13;;
9222;SDS011;7557;51.698;3.942;2024-03-17T02:27:22;55.10;;;52.53;;
9222;SDS011;7557;51.698;3.942;2024-03-17T02:29:49;49.73;;;47.63;;
9222;SDS011;7557;51.698;3.942;2024-03-17T02:32:16;50.13;;;48.07;;
9222;SDS011;7557;51.698;3.942;2024-03-17T02:34:45;57.17;;;54.77;;
9222;SDS011;7557;51.698;3.942;2024-03-17T02:37:11;58.87;;;56.30;;
9222;SDS011;7557;51.698;3.942;2024-03-17T02:39:40;49.07;;;47.03;;
9222;SDS011;7557;51.698;3.942;2024-03-17T02:42:07;46.73;;;44.70;;
9222;SDS011;7557;51.698;3.942;2024-03-17T02:44:36;42.47;;;40.57;;
9222;SDS011;7557;51.698;3.942;2024-03-17T02:47:05;46.57;;;44.20;;
9222;SDS011;7557;51.698;3.942;2024-03-17T02:49:34;42.40;;;40.43;;
9222;SDS011;7557;51.698;3.942;2024-03-17T02:52:04;42.53;;;40.47;;
9222;SDS011;7557;51.698;3.942;2024-03-17T02:54:34;45.67;;;43.60;;
9222;SDS011;7557;51.698;3.942;2024-03-17T02:57:05;49.40;;;47.20;;
9222;SDS011;7557;51.698;3.942;2024-03-17T02:59:33;46.73;;;44.77;;
9222;SDS011;7557;51.698;3.942;2024-03-17T03:02:01;48.13;;;45.95;;
9222;SDS011;7557;51.698;3.942;2024-03-17T03:04:29;53.33;;;50.73;;
9222;SDS011;7557;51.698;3.942;2024-03-17T03:06:57;57.23;;;54.77;;
9222;SDS011;7557;51.698;3.942;2024-03-17T03:09:25;55.57;;;53.23;;
9222;SDS011;7557;51.698;3.942;2024-03-17T03:11:56;63.03;;;60.40;;
9222;SDS011;7557;51.698;3.942;2024-03-17T03:14:26;58.83;;;56.37;;
9222;SDS011;7557;51.698;3.942;2024-03-17T03:16:54;61.23;;;58.83;;
9222;SDS011;7557;51.698;3.942;2024-03-17T03:19:21;63.50;;;60.60;;
9222;SDS011;7557;51.698;3.942;2024-03-17T03:21:49;60.20;;;57.73;;
9222;SDS011;7557;51.698;3.942;2024-03-17T03:24:17;62.57;;;60.00;;
9222;SDS011;7557;51.698;3.942;2024-03-17T03:26:44;57.33;;;55.00;;
9222;SDS011;7557;51.698;3.942;2024-03-17T03:29:13;64.07;;;61.10;;
9222;SDS011;7557;51.698;3.942;2024-03-17T03:31:43;57.30;;;54.80;;
9222;SDS011;7557;51.698;3.942;2024-03-17T03:34:10;87.23;;;83.60;;
9222;SDS011;7557;51.698;3.942;2024-03-17T03:36:38;83.40;;;79.87;;
9222;SDS011;7557;51.698;3.942;2024-03-17T03:39:06;59.50;;;57.07;;
9222;SDS011;7557;51.698;3.942;2024-03-17T03:41:36;62.40;;;59.70;;
9222;SDS011;7557;51.698;3.942;2024-03-17T03:44:05;60.70;;;58.17;;
9222;SDS011;7557;51.698;3.942;2024-03-17T03:46:33;62.70;;;60.13;;
9222;SDS011;7557;51.698;3.942;2024-03-17T03:49:02;63.87;;;61.07;;
9222;SDS011;7557;51.698;3.942;2024-03-17T03:51:31;64.27;;;61.40;;
9222;SDS011;7557;51.698;3.942;2024-03-17T03:53:58;60.70;;;58.00;;
9222;SDS011;7557;51.698;3.942;2024-03-17T03:56:25;62.87;;;60.27;;
9222;SDS011;7557;51.698;3.942;2024-03-17T03:58:54;68.30;;;65.40;;
9222;SDS011;7557;51.698;3.942;2024-03-17T04:01:22;74.03;;;70.97;;
9222;SDS011;7557;51.698;3.942;2024-03-17T04:03:50;75.50;;;72.43;;
9222;SDS011;7557;51.698;3.942;2024-03-17T04:06:19;101.90;;;97.63;;
9222;SDS011;7557;51.698;3.942;2024-03-17T04:08:48;63.87;;;61.13;;
9222;SDS011;7557;51.698;3.942;2024-03-17T04:11:15;65.80;;;63.00;;
9222;SDS011;7557;51.698;3.942;2024-03-17T04:13:43;69.10;;;65.73;;
9222;SDS011;7557;51.698;3.942;2024-03-17T04:16:10;63.50;;;60.87;;
9222;SDS011;7557;51.698;3.942;2024-03-17T04:18:40;165.63;;;157.40;;
9222;SDS011;7557;51.698;3.942;2024-03-17T04:21:07;62.93;;;60.20;;
9222;SDS011;7557;51.698;3.942;2024-03-17T04:23:37;67.30;;;64.40;;
9222;SDS011;7557;51.698;3.942;2024-03-17T04:26:04;61.40;;;58.87;;
9222;SDS011;7557;51.698;3.942;2024-03-17T04:28:34;66.07;;;63.27;;
9222;SDS011;7557;51.698;3.942;2024-03-17T04:31:02;66.23;;;63.53;;
9222;SDS011;7557;51.698;3.942;2024-03-17T04:33:29;61.83;;;59.33;;
9222;SDS011;7557;51.698;3.942;2024-03-17T04:35:57;63.23;;;60.53;;
9222;SDS011;7557;51.698;3.942;2024-03-17T04:38:25;61.93;;;59.33;;
9222;SDS011;7557;51.698;3.942;2024-03-17T04:40:54;60.10;;;57.50;;
9222;SDS011;7557;51.698;3.942;2024-03-17T04:43:29;64.97;;;62.20;;
9222;SDS011;7557;51.698;3.942;2024-03-17T04:46:01;62.80;;;59.80;;
9222;SDS011;7557;51.698;3.942;2024-03-17T04:48:31;55.43;;;53.00;;
9222;SDS011;7557;51.698;3.942;2024-03-17T04:50:59;54.70;;;52.07;;
9222;SDS011;7557;51.698;3.942;2024-03-17T04:53:27;64.00;;;61.30;;
9222;SDS011;7557;51.698;3.942;2024-03-17T04:56:02;56.53;;;54.23;;
9222;SDS011;7557;51.698;3.942;2024-03-17T04:58:31;51.73;;;49.30;;
9222;SDS011;7557;51.698;3.942;2024-03-17T05:01:03;78.93;;;75.53;;
9222;SDS011;7557;51.698;3.942;2024-03-17T05:03:32;57.00;;;54.50;;
9222;SDS011;7557;51.698;3.942;2024-03-17T05:05:59;54.50;;;52.23;;
9222;SDS011;7557;51.698;3.942;2024-03-17T05:08:27;57.03;;;54.50;;
9222;SDS011;7557;51.698;3.942;2024-03-17T05:10:58;78.73;;;75.47;;
9222;SDS011;7557;51.698;3.942;2024-03-17T05:13:27;122.43;;;117.27;;
9222;SDS011;7557;51.698;3.942;2024-03-17T05:15:54;110.77;;;105.93;;
9222;SDS011;7557;51.698;3.942;2024-03-17T05:18:22;164.50;;;157.17;;
9222;SDS011;7557;51.698;3.942;2024-03-17T05:20:57;128.10;;;123.00;;
9222;SDS011;7557;51.698;3.942;2024-03-17T05:23:26;94.47;;;90.20;;
9222;SDS011;7557;51.698;3.942;2024-03-17T05:25:54;96.63;;;92.67;;
9222;SDS011;7557;51.698;3.942;2024-03-17T05:28:23;109.13;;;103.57;;
9222;SDS011;7557;51.698;3.942;2024-03-17T05:30:52;56.27;;;53.63;;
9222;SDS011;7557;51.698;3.942;2024-03-17T05:33:20;70.57;;;67.53;;
9222;SDS011;7557;51.698;3.942;2024-03-17T05:35:48;63.17;;;60.40;;
9222;SDS011;7557;51.698;3.942;2024-03-17T05:38:17;57.60;;;54.90;;
9222;SDS011;7557;51.698;3.942;2024-03-17T05:40:55;54.63;;;52.03;;
9222;SDS011;7557;51.698;3.942;2024-03-17T05:43:25;96.17;;;92.10;;
9222;SDS011;7557;51.698;3.942;2024-03-17T05:45:56;55.50;;;53.10;;
9222;SDS011;7557;51.698;3.942;2024-03-17T05:48:24;58.57;;;55.97;;
9222;SDS011;7557;51.698;3.942;2024-03-17T05:50:52;58.50;;;56.10;;
9222;SDS011;7557;51.698;3.942;2024-03-17T05:53:21;68.37;;;65.63;;
9222;SDS011;7557;51.698;3.942;2024-03-17T05:55:49;76.37;;;73.00;;
9222;SDS011;7557;51.698;3.942;2024-03-17T05:58:17;65.03;;;62.23;;
9222;SDS011;7557;51.698;3.942;2024-03-17T06:00:44;63.77;;;61.07;;
9222;SDS011;7557;51.698;3.942;2024-03-17T06:03:13;63.37;;;60.40;;
9222;SDS011;7557;51.698;3.942;2024-03-17T06:05:41;63.27;;;60.27;;
9222;SDS011;7557;51.698;3.942;2024-03-17T06:08:08;67.20;;;64.33;;
9222;SDS011;7557;51.698;3.942;2024-03-17T06:10:36;67.43;;;64.53;;
9222;SDS011;7557;51.698;3.942;2024-03-17T06:13:07;63.37;;;60.60;;
9222;SDS011;7557;51.698;3.942;2024-03-17T06:15:37;60.13;;;57.33;;
9222;SDS011;7557;51.698;3.942;2024-03-17T06:18:05;59.07;;;56.27;;
9222;SDS011;7557;51.698;3.942;2024-03-17T06:20:39;70.03;;;66.77;;
9222;SDS011;7557;51.698;3.942;2024-03-17T06:23:07;68.50;;;65.47;;
9222;SDS011;7557;51.698;3.942;2024-03-17T06:25:37;52.90;;;50.40;;
9222;SDS011;7557;51.698;3.942;2024-03-17T06:28:05;65.13;;;62.17;;
9222;SDS011;7557;51.698;3.942;2024-03-17T06:30:33;55.53;;;52.83;;
9222;SDS011;7557;51.698;3.942;2024-03-17T06:33:01;73.43;;;70.33;;
9222;SDS011;7557;51.698;3.942;2024-03-17T06:35:29;57.73;;;55.17;;
9222;SDS011;7557;51.698;3.942;2024-03-17T06:38:00;64.23;;;61.13;;
9222;SDS011;7557;51.698;3.942;2024-03-17T06:40:27;89.37;;;84.90;;
9222;SDS011;7557;51.698;3.942;2024-03-17T06:42:55;64.10;;;61.20;;
9222;SDS011;7557;51.698;3.942;2024-03-17T06:45:23;66.90;;;63.70;;
9222;SDS011;7557;51.698;3.942;2024-03-17T06:47:50;70.03;;;67.20;;
9222;SDS011;7557;51.698;3.942;2024-03-17T06:50:18;73.60;;;70.60;;
9222;SDS011;7557;51.698;3.942;2024-03-17T06:52:45;64.20;;;61.37;;
9222;SDS011;7557;51.698;3.942;2024-03-17T06:55:15;67.13;;;64.17;;
9222;SDS011;7557;51.698;3.942;2024-03-17T06:57:43;73.10;;;69.87;;
9222;SDS011;7557;51.698;3.942;2024-03-17T07:00:11;71.90;;;68.53;;
9222;SDS011;7557;51.698;3.942;2024-03-17T07:02:41;80.13;;;76.83;;
9222;SDS011;7557;51.698;3.942;2024-03-17T07:05:11;73.90;;;70.70;;
9222;SDS011;7557;51.698;3.942;2024-03-17T07:07:41;63.30;;;60.47;;
9222;SDS011;7557;51.698;3.942;2024-03-17T07:10:08;63.63;;;60.90;;
9222;SDS011;7557;51.698;3.942;2024-03-17T07:12:38;66.90;;;64.10;;
9222;SDS011;7557;51.698;3.942;2024-03-17T07:15:05;94.07;;;90.10;;
9222;SDS011;7557;51.698;3.942;2024-03-17T07:17:33;81.73;;;78.17;;
9222;SDS011;7557;51.698;3.942;2024-03-17T07:20:01;91.73;;;87.77;;
9222;SDS011;7557;51.698;3.942;2024-03-17T07:22:33;73.30;;;70.10;;
9222;SDS011;7557;51.698;3.942;2024-03-17T07:25:00;63.70;;;60.67;;
9222;SDS011;7557;51.698;3.942;2024-03-17T07:27:28;63.40;;;60.43;;
9222;SDS011;7557;51.698;3.942;2024-03-17T07:29:58;64.07;;;61.27;;
9222;SDS011;7557;51.698;3.942;2024-03-17T07:32:25;56.03;;;53.07;;
9222;SDS011;7557;51.698;3.942;2024-03-17T07:34:53;60.57;;;57.97;;
9222;SDS011;7557;51.698;3.942;2024-03-17T07:37:20;85.73;;;81.83;;
9222;SDS011;7557;51.698;3.942;2024-03-17T07:39:48;75.93;;;72.70;;
9222;SDS011;7557;51.698;3.942;2024-03-17T07:42:15;69.53;;;66.33;;
9222;SDS011;7557;51.698;3.942;2024-03-17T07:44:43;79.73;;;76.20;;
9222;SDS011;7557;51.698;3.942;2024-03-17T07:47:12;70.33;;;67.20;;
9222;SDS011;7557;51.698;3.942;2024-03-17T07:49:40;66.77;;;63.87;;
9222;SDS011;7557;51.698;3.942;2024-03-17T07:52:09;112.10;;;107.50;;
9222;SDS011;7557;51.698;3.942;2024-03-17T07:54:36;146.03;;;139.87;;
9222;SDS011;7557;51.698;3.942;2024-03-17T07:57:04;92.33;;;88.23;;
9222;SDS011;7557;51.698;3.942;2024-03-17T07:59:31;81.30;;;77.87;;
9222;SDS011;7557;51.698;3.942;2024-03-17T08:01:59;77.13;;;73.73;;
9222;SDS011;7557;51.698;3.942;2024-03-17T08:04:28;103.73;;;99.30;;
9222;SDS011;7557;51.698;3.942;2024-03-17T08:06:56;77.47;;;74.27;;
9222;SDS011;7557;51.698;3.942;2024-03-17T08:09:24;109.00;;;104.60;;
9222;SDS011;7557;51.698;3.942;2024-03-17T08:11:52;77.60;;;74.20;;
9222;SDS011;7557;51.698;3.942;2024-03-17T08:14:19;115.63;;;110.53;;
9222;SDS011;7557;51.698;3.942;2024-03-17T08:16:46;107.13;;;102.67;;
9222;SDS011;7557;51.698;3.942;2024-03-17T08:19:14;80.33;;;76.97;;
9222;SDS011;7557;51.698;3.942;2024-03-17T08:21:43;72.27;;;69.33;;
9222;SDS011;7557;51.698;3.942;2024-03-17T08:24:11;84.97;;;81.47;;
9222;SDS011;7557;51.698;3.942;2024-03-17T08:26:39;88.83;;;85.03;;
9222;SDS011;7557;51.698;3.942;2024-03-17T08:29:08;80.83;;;77.40;;
9222;SDS011;7557;51.698;3.942;2024-03-17T08:31:35;80.07;;;76.67;;
9222;SDS011;7557;51.698;3.942;2024-03-17T08:34:03;72.37;;;69.07;;
9222;SDS011;7557;51.698;3.942;2024-03-17T08:36:30;114.47;;;109.97;;
9222;SDS011;7557;51.698;3.942;2024-03-17T08:38:59;84.93;;;81.17;;
9222;SDS011;7557;51.698;3.942;2024-03-17T08:41:27;88.73;;;84.90;;
9222;SDS011;7557;51.698;3.942;2024-03-17T08:43:56;88.90;;;85.13;;
9222;SDS011;7557;51.698;3.942;2024-03-17T08:46:24;92.53;;;88.60;;
9222;SDS011;7557;51.698;3.942;2024-03-17T08:48:51;80.60;;;77.27;;
9222;SDS011;7557;51.698;3.942;2024-03-17T08:51:19;84.80;;;81.18;;
9222;SDS011;7557;51.698;3.942;2024-03-17T08:53:47;76.60;;;73.15;;
9222;SDS011;7557;51.698;3.942;2024-03-17T08:56:16;88.50;;;84.77;;
9222;SDS011;7557;51.698;3.942;2024-03-17T08:58:43;97.57;;;93.60;;
9222;SDS011;7557;51.698;3.942;2024-03-17T09:01:11;150.40;;;143.20;;
9222;SDS011;7557;51.698;3.942;2024-03-17T09:03:42;75.37;;;72.27;;
9222;SDS011;7557;51.698;3.942;2024-03-17T09:06:14;97.83;;;93.43;;
9222;SDS011;7557;51.698;3.942;2024-03-17T09:08:44;82.27;;;78.97;;
9222;SDS011;7557;51.698;3.942;2024-03-17T09:11:12;63.87;;;60.93;;
9222;SDS011;7557;51.698;3.942;2024-03-17T09:13:44;112.83;;;107.63;;
9222;SDS011;7557;51.698;3.942;2024-03-17T09:16:12;74.73;;;71.57;;
9222;SDS011;7557;51.698;3.942;2024-03-17T09:18:39;69.13;;;66.20;;
9222;SDS011;7557;51.698;3.942;2024-03-17T09:21:07;66.18;;;63.45;;
9222;SDS011;7557;51.698;3.942;2024-03-17T09:23:35;61.73;;;58.83;;
9222;SDS011;7557;51.698;3.942;2024-03-17T09:26:04;54.13;;;51.67;;
9222;SDS011;7557;51.698;3.942;2024-03-17T09:28:33;56.10;;;53.63;;
9222;SDS011;7557;51.698;3.942;2024-03-17T09:31:03;88.77;;;84.53;;
9222;SDS011;7557;51.698;3.942;2024-03-17T09:33:34;73.03;;;69.73;;
9222;SDS011;7557;51.698;3.942;2024-03-17T09:36:03;63.07;;;60.30;;
9222;SDS011;7557;51.698;3.942;2024-03-17T09:38:32;79.88;;;76.47;;
9222;SDS011;7557;51.698;3.942;2024-03-17T09:41:05;216.30;;;202.70;;
9222;SDS011;7557;51.698;3.942;2024-03-17T09:43:37;102.77;;;98.30;;
9222;SDS011;7557;51.698;3.942;2024-03-17T09:46:10;171.70;;;163.07;;
9222;SDS011;7557;51.698;3.942;2024-03-17T09:48:58;98.73;;;94.67;;
9222;SDS011;7557;51.698;3.942;2024-03-17T09:51:27;135.33;;;129.93;;
9222;SDS011;7557;51.698;3.942;2024-03-17T09:53:55;184.17;;;175.83;;
9222;SDS011;7557;51.698;3.942;2024-03-17T09:56:22;135.85;;;130.00;;
9222;SDS011;7557;51.698;3.942;2024-03-17T09:58:51;200.50;;;192.23;;
9222;SDS011;7557;51.698;3.942;2024-03-17T10:01:20;170.73;;;164.37;;
9222;SDS011;7557;51.698;3.942;2024-03-17T10:03:49;204.27;;;195.83;;
9222;SDS011;7557;51.698;3.942;2024-03-17T10:06:20;224.30;;;215.57;;
9222;SDS011;7557;51.698;3.942;2024-03-17T10:08:49;244.30;;;234.73;;
9222;SDS011;7557;51.698;3.942;2024-03-17T10:11:18;251.48;;;241.85;;
9222;SDS011;7557;51.698;3.942;2024-03-17T10:13:46;273.73;;;263.27;;
9222;SDS011;7557;51.698;3.942;2024-03-17T10:16:26;283.40;;;272.13;;
9222;SDS011;7557;51.698;3.942;2024-03-17T10:19:05;245.63;;;236.10;;
9222;SDS011;7557;51.698;3.942;2024-03-17T10:21:35;322.63;;;310.23;;
9222;SDS011;7557;51.698;3.942;2024-03-17T10:24:07;316.73;;;302.97;;
9222;SDS011;7557;51.698;3.942;2024-03-17T10:26:37;295.23;;;283.77;;
9222;SDS011;7557;51.698;3.942;2024-03-17T10:29:14;329.57;;;316.73;;
9222;SDS011;7557;51.698;3.942;2024-03-17T10:31:52;321.70;;;309.47;;
9222;SDS011;7557;51.698;3.942;2024-03-17T10:34:21;306.67;;;293.93;;
9222;SDS011;7557;51.698;3.942;2024-03-17T10:36:50;356.17;;;338.90;;
9222;SDS011;7557;51.698;3.942;2024-03-17T10:39:22;367.87;;;353.77;;
9222;SDS011;7557;51.698;3.942;2024-03-17T10:41:58;263.43;;;253.07;;
9222;SDS011;7557;51.698;3.942;2024-03-17T10:44:26;268.75;;;257.63;;
9222;SDS011;7557;51.698;3.942;2024-03-17T10:46:58;274.67;;;263.97;;
9222;SDS011;7557;51.698;3.942;2024-03-17T10:49:31;285.40;;;274.57;;
9222;SDS011;7557;51.698;3.942;2024-03-17T10:52:00;282.52;;;272.05;;
9222;SDS011;7557;51.698;3.942;2024-03-17T10:54:30;305.43;;;292.60;;
9222;SDS011;7557;51.698;3.942;2024-03-17T10:57:01;279.25;;;268.52;;
9222;SDS011;7557;51.698;3.942;2024-03-17T10:59:41;305.03;;;292.77;;
9222;SDS011;7557;51.698;3.942;2024-03-17T11:02:17;324.52;;;311.50;;
9222;SDS011;7557;51.698;3.942;2024-03-17T11:04:53;255.30;;;245.02;;
9222;SDS011;7557;51.698;3.942;2024-03-17T11:07:23;305.27;;;292.20;;
9222;SDS011;7557;51.698;3.942;2024-03-17T11:09:52;267.77;;;256.17;;
9222;SDS011;7557;51.698;3.942;2024-03-17T11:12:41;365.33;;;351.42;;
9222;SDS011;7557;51.698;3.942;2024-03-17T11:21:06;279.42;;;267.33;;
9222;SDS011;7557;51.698;3.942;2024-03-17T11:23:54;312.55;;;300.30;;
9222;SDS011;7557;51.698;3.942;2024-03-17T11:26:28;326.30;;;312.70;;
9222;SDS011;7557;51.698;3.942;2024-03-17T11:28:57;353.05;;;339.27;;
9222;SDS011;7557;51.698;3.942;2024-03-17T11:34:32;297.58;;;284.25;;
9222;SDS011;7557;51.698;3.942;2024-03-17T11:37:05;274.00;;;263.13;;
9222;SDS011;7557;51.698;3.942;2024-03-17T11:39:46;315.60;;;303.13;;
9222;SDS011;7557;51.698;3.942;2024-03-17T11:42:21;318.92;;;306.27;;
9222;SDS011;7557;51.698;3.942;2024-03-17T11:45:02;333.80;;;318.85;;
9222;SDS011;7557;51.698;3.942;2024-03-17T11:47:35;305.17;;;291.98;;
9222;SDS011;7557;51.698;3.942;2024-03-17T11:50:06;232.30;;;222.82;;
9222;SDS011;7557;51.698;3.942;2024-03-17T11:52:35;202.63;;;195.13;;
9222;SDS011;7557;51.698;3.942;2024-03-17T11:55:03;249.25;;;239.70;;
9222;SDS011;7557;51.698;3.942;2024-03-17T11:57:30;329.60;;;314.27;;
9222;SDS011;7557;51.698;3.942;2024-03-17T11:59:57;295.95;;;284.25;;
9222;SDS011;7557;51.698;3.942;2024-03-17T12:02:25;300.85;;;288.80;;
9222;SDS011;7557;51.698;3.942;2024-03-17T12:04:54;248.02;;;238.60;;
9222;SDS011;7557;51.698;3.942;2024-03-17T12:07:25;190.60;;;183.60;;
9222;SDS011;7557;51.698;3.942;2024-03-17T12:09:53;279.25;;;268.27;;
9222;SDS011;7557;51.698;3.942;2024-03-17T12:12:21;243.43;;;233.35;;
9222;SDS011;7557;51.698;3.942;2024-03-17T12:14:50;244.15;;;235.13;;
9222;SDS011;7557;51.698;3.942;2024-03-17T12:17:19;297.95;;;286.08;;
9222;SDS011;7557;51.698;3.942;2024-03-17T12:19:47;158.20;;;152.35;;
9222;SDS011;7557;51.698;3.942;2024-03-17T12:22:15;132.35;;;127.07;;
9222;SDS011;7557;51.698;3.942;2024-03-17T12:24:48;169.98;;;163.38;;
9222;SDS011;7557;51.698;3.942;2024-03-17T12:27:19;187.10;;;179.90;;
9222;SDS011;7557;51.698;3.942;2024-03-17T12:29:48;170.68;;;164.32;;
9222;SDS011;7557;51.698;3.942;2024-03-17T12:32:15;235.38;;;226.23;;
9222;SDS011;7557;51.698;3.942;2024-03-17T12:34:44;167.05;;;160.70;;
9222;SDS011;7557;51.698;3.942;2024-03-17T12:37:16;159.93;;;153.57;;
9222;SDS011;7557;51.698;3.942;2024-03-17T12:39:44;153.57;;;148.00;;
9222;SDS011;7557;51.698;3.942;2024-03-17T12:42:15;183.15;;;176.18;;
9222;SDS011;7557;51.698;3.942;2024-03-17T12:44:47;155.73;;;149.57;;
9222;SDS011;7557;51.698;3.942;2024-03-17T12:47:15;194.52;;;187.05;;
9222;SDS011;7557;51.698;3.942;2024-03-17T12:49:46;197.00;;;189.35;;
9222;SDS011;7557;51.698;3.942;2024-03-17T12:52:17;153.25;;;147.15;;
9222;SDS011;7557;51.698;3.942;2024-03-17T12:54:56;142.07;;;136.68;;
9222;SDS011;7557;51.698;3.942;2024-03-17T12:57:47;164.52;;;158.30;;
9222;SDS011;7557;51.698;3.942;2024-03-17T13:00:33;133.38;;;128.07;;
9222;SDS011;7557;51.698;3.942;2024-03-17T13:03:00;139.40;;;134.00;;
9222;SDS011;7557;51.698;3.942;2024-03-17T13:05:29;180.43;;;173.68;;
9222;SDS011;7557;51.698;3.942;2024-03-17T13:07:56;201.57;;;194.07;;
9222;SDS011;7557;51.698;3.942;2024-03-17T13:10:25;178.80;;;172.10;;
9222;SDS011;7557;51.698;3.942;2024-03-17T13:13:00;221.13;;;212.57;;
9222;SDS011;7557;51.698;3.942;2024-03-17T13:15:31;253.65;;;243.75;;
9222;SDS011;7557;51.698;3.942;2024-03-17T13:18:00;208.52;;;200.50;;
9222;SDS011;7557;51.698;3.942;2024-03-17T13:20:29;319.23;;;305.63;;
9222;SDS011;7557;51.698;3.942;2024-03-17T13:22:57;304.20;;;292.00;;
9222;SDS011;7557;51.698;3.942;2024-03-17T13:25:25;251.90;;;242.10;;
9222;SDS011;7557;51.698;3.942;2024-03-17T13:27:58;199.82;;;192.13;;
9222;SDS011;7557;51.698;3.942;2024-03-17T13:30:27;305.10;;;289.55;;
9222;SDS011;7557;51.698;3.942;2024-03-17T13:32:55;227.43;;;218.45;;
9222;SDS011;7557;51.698;3.942;2024-03-17T13:35:24;208.10;;;200.05;;
9222;SDS011;7557;51.698;3.942;2024-03-17T13:37:52;256.35;;;245.35;;
9222;SDS011;7557;51.698;3.942;2024-03-17T13:40:20;263.42;;;253.07;;
9222;SDS011;7557;51.698;3.942;2024-03-17T13:42:49;276.55;;;264.98;;
9222;SDS011;7557;51.698;3.942;2024-03-17T13:45:18;321.98;;;309.60;;
9222;SDS011;7557;51.698;3.942;2024-03-17T13:47:48;352.20;;;338.10;;
9222;SDS011;7557;51.698;3.942;2024-03-17T13:50:21;350.25;;;336.00;;
9222;SDS011;7557;51.698;3.942;2024-03-17T13:52:49;361.58;;;346.90;;
9222;SDS011;7557;51.698;3.942;2024-03-17T13:55:17;353.33;;;338.42;;
9222;SDS011;7557;51.698;3.942;2024-03-17T13:57:46;306.10;;;293.35;;
9222;SDS011;7557;51.698;3.942;2024-03-17T14:00:16;457.15;;;437.80;;
9222;SDS011;7557;51.698;3.942;2024-03-17T14:02:48;468.20;;;448.83;;
9222;SDS011;7557;51.698;3.942;2024-03-17T14:05:16;490.02;;;468.52;;
9222;SDS011;7557;51.698;3.942;2024-03-17T14:07:47;487.40;;;467.58;;
9222;SDS011;7557;51.698;3.942;2024-03-17T14:10:15;499.17;;;477.80;;
9222;SDS011;7557;51.698;3.942;2024-03-17T14:12:44;511.58;;;489.25;;
9222;SDS011;7557;51.698;3.942;2024-03-17T14:15:12;462.52;;;443.08;;
9222;SDS011;7557;51.698;3.942;2024-03-17T14:17:42;427.10;;;409.80;;
9222;SDS011;7557;51.698;3.942;2024-03-17T14:20:12;541.35;;;517.67;;
9222;SDS011;7557;51.698;3.942;2024-03-17T14:22:43;470.42;;;449.45;;
9222;SDS011;7557;51.698;3.942;2024-03-17T14:25:15;525.88;;;502.98;;
9222;SDS011;7557;51.698;3.942;2024-03-17T14:27:44;509.10;;;486.05;;
9222;SDS011;7557;51.698;3.942;2024-03-17T14:30:14;561.90;;;537.22;;
9222;SDS011;7557;51.698;3.942;2024-03-17T14:32:43;637.22;;;607.08;;
9222;SDS011;7557;51.698;3.942;2024-03-17T14:35:12;598.90;;;571.22;;
9222;SDS011;7557;51.698;3.942;2024-03-17T14:37:45;630.25;;;600.10;;
9222;SDS011;7557;51.698;3.942;2024-03-17T14:40:16;638.50;;;606.75;;
9222;SDS011;7557;51.698;3.942;2024-03-17T14:43:23;660.90;;;627.58;;
9222;SDS011;7557;51.698;3.942;2024-03-17T14:46:03;641.38;;;609.25;;
9222;SDS011;7557;51.698;3.942;2024-03-17T14:48:32;646.63;;;614.20;;
9222;SDS011;7557;51.698;3.942;2024-03-17T14:51:16;688.80;;;654.13;;
9222;SDS011;7557;51.698;3.942;2024-03-17T14:53:47;692.47;;;656.78;;
9222;SDS011;7557;51.698;3.942;2024-03-17T14:56:17;722.08;;;683.50;;
9222;SDS011;7557;51.698;3.942;2024-03-17T14:58:45;719.60;;;681.30;;
9222;SDS011;7557;51.698;3.942;2024-03-17T15:01:13;727.45;;;688.20;;